Chatham, New Jersey
Current Conditions -  °F | °C
As of 5:35 AM on Thursday 23 Oct 2014 (Local Time) from KMMU Reporting Station
Light Rain Light Rain  
Wind Chill: 55°   Ceiling: 2200
Heat Index: 55°   Visibility: 10mi
Dew Point: 46°   Wind: 12mph
Humidity: 72%   Direction: 360°N
Pressure: 29.73"   Gusts: 18mph
Location:  40.74°N, 74.38°W
Report Text: KMMU 230935Z AUTO 36010G16KT 330V040 10SM -RA OVC022 13/08 A2973 RMK AO2
Loading
Personal Weather Stations






























Interactive Weather Map
Tropical Storm Tracking
New forecast layout! Learn more

10-Day Weather Forecast

Advertisements
Track Severe Weather on mobile